Airfield :
LOGIN :

Register | Disclaimer

   EN    FR    IT 

 










Legend :    VFR   Marginal VFR   IFR   Intensive IFR   Very Intensive IFR
Visi :
Ceiling :
>= 8 km
>= 3000ft
5 to 8 km
1000 to 3000 ft
1500m to 5 km
500 to 1000 ft
800 to 1500m
200 to 500 ft
< 800m
< 200 ft
Symbols :   Thunderstorms  Fog  Heavy snow  Heavy precipitations  Wind > 20 kt
SIGMETs :     Misc.  Thunderstorms  Icing  Turbulence  Mountain Waves  Volcanic Ashes







- Airport Elevation : 39 ft


ETNH - Hohn AB

CURRENT METAR :
  • 192320Z 21007KT 9999 SCT030TCU BKN080 17/16 Q1007 BLU

EXPIRED METARs :
  • 192220Z VRB03KT 9999 FEW040CB SCT080 17/16 Q1006 BLU+
  • 192120Z 17003KT 9999 FEW040CB SCT080 17/16 Q1006 BLU+

TAF TAF ETNH
Valid from the 19 at 17:00 until the 20 at 05:00 UTC


191620Z 1917/2005 17008KT 9999 NSW SCT050
TEMPO 1917/2121 19015G25KT 5000 TSRA BKN030CB
PROB30 1917/1921 VRB20G35KT 2000 +TSRAGR BKN012 BKN030CB
BECMG 1921/1923 22006KT 8000 NSW SCT010 BKN020
PROB30 1921/2005 24010G20KT 3000 SHRA BKN005 BKN015CB BY ETGL
No reported NOTAMs for that airfield.
1 SIGMET reported for the Bremen FIR (EDWW) :
 
Embedded thunderstorms
EDWW SIGMET 11 VALID 192300/200100 EDZF
EDWW BREMEN FIR EMBD TS OBS WI N5329 E01014 - N5306 E01218 - N5149 E01308 - N5204 E01102 - N5235 E01001 - N5329 E01014 TOP FL380 MOV NNE NC=



MET'MAP, your aeronautical weather chart ! - Copyright ORBIFLY December 2007 - Disclaimer

ORBIFLY MET'MAP TEAM :

Programming & Development : Alexandra Zaïnal
Concept & Development : Baudouin d'Aumeries
Co-Development & Prog : Marc-Olivier Méhu
Technical & hardware support : Manuel Goepfert

Contact : metmap@orbifly.com




SOURCES & CREDITS :

   NOAA